Time;durP1;ratioP1;P1;durP2;ratioP2;P2;SDS_P1;SDS_P2;PMS_P1;PMS_P2;Temp;Humidity;BMP_temperature;BMP_pressure;BME280_temperature;BME280_humidity;BME280_pressure;Samples;Min_cycle;Max_cycle;Signal;HPM_P1;HPM_P2
2022/09/23 00:01:22;;;;;;;1999.90;999.90;;;;;;;;;;5154855;27;20528;-48
2022/09/23 00:03:50;;;;;;;1999.90;999.90;;;;;;;;;;5156154;27;20043;-45
2022/09/23 00:06:20;;;;;;;1999.90;999.90;;;;;;;;;;5156115;27;20134;-49
2022/09/23 00:08:48;;;;;;;1999.90;999.90;;;;;;;;;;5155934;27;20570;-49
2022/09/23 00:11:24;;;;;;;1999.90;999.90;;;;;;;;;;5155871;27;20110;-46
2022/09/23 00:13:55;;;;;;;1999.90;999.90;;;;;;;;;;5155775;27;20038;-46
2022/09/23 00:16:32;;;;;;;1999.90;999.90;;;;;;;;;;5155966;27;20063;-46
2022/09/23 00:19:04;;;;;;;1999.90;999.90;;;;;;;;;;5156044;27;20824;-48
2022/09/23 00:21:32;;;;;;;1999.90;999.90;;;;;;;;;;5154521;27;20133;-51
2022/09/23 00:24:01;;;;;;;1999.90;999.90;;;;;;;;;;5155716;27;20039;-48
2022/09/23 00:26:28;;;;;;;1999.90;999.90;;;;;;;;;;5155576;27;20107;-43
2022/09/23 00:28:56;;;;;;;1999.90;999.90;;;;;;;;;;5155510;27;20045;-47
2022/09/23 00:31:25;;;;;;;1999.90;999.90;;;;;;;;;;5140827;27;20494;-48
2022/09/23 00:33:55;;;;;;;1999.90;999.90;;;;;;;;;;5155550;27;20527;-47
2022/09/23 00:36:24;;;;;;;1999.90;999.90;;;;;;;;;;5155202;27;20498;-48
2022/09/23 00:38:52;;;;;;;1999.90;999.90;;;;;;;;;;5155436;27;20362;-50
2022/09/23 00:41:20;;;;;;;1999.90;999.90;;;;;;;;;;5155369;27;20087;-49
2022/09/23 00:43:56;;;;;;;1999.90;999.90;;;;;;;;;;5136799;27;20065;-46
2022/09/23 00:46:51;;;;;;;1999.90;999.90;;;;;;;;;;5155113;27;20545;-46
2022/09/23 00:49:26;;;;;;;1999.90;999.90;;;;;;;;;;5151634;27;20047;-44
2022/09/23 00:51:59;;;;;;;1999.90;999.90;;;;;;;;;;5154905;27;20547;-46
2022/09/23 00:54:28;;;;;;;1999.90;999.90;;;;;;;;;;5154997;27;20043;-48
2022/09/23 00:56:58;;;;;;;1999.90;999.90;;;;;;;;;;5154805;27;20050;-48
2022/09/23 00:59:27;;;;;;;1999.90;999.90;;;;;;;;;;5155090;27;20041;-48
2022/09/23 01:01:57;;;;;;;1999.90;999.90;;;;;;;;;;5154982;27;20096;-49
2022/09/23 01:04:27;;;;;;;1999.90;999.90;;;;;;;;;;5155005;27;20039;-47
2022/09/23 01:06:54;;;;;;;1999.90;999.90;;;;;;;;;;5154655;27;20117;-46
2022/09/23 01:09:22;;;;;;;1999.90;999.90;;;;;;;;;;5154866;27;20125;-48
2022/09/23 01:12:18;;;;;;;1999.90;999.90;;;;;;;;;;5154468;27;20042;-51
2022/09/23 01:15:12;;;;;;;1999.90;999.90;;;;;;;;;;5154692;27;20612;-49
2022/09/23 01:18:03;;;;;;;1999.90;999.90;;;;;;;;;;5154546;27;20494;-44
2022/09/23 01:20:51;;;;;;;1999.90;999.90;;;;;;;;;;5154556;27;20039;-46
2022/09/23 01:23:46;;;;;;;1999.90;999.90;;;;;;;;;;5154666;27;20049;-46
2022/09/23 01:26:43;;;;;;;1999.90;999.90;;;;;;;;;;5154228;27;20039;-46
2022/09/23 01:29:47;;;;;;;1999.90;999.90;;;;;;;;;;5151790;27;20041;-52
2022/09/23 01:33:07;;;;;;;1999.90;999.90;;;;;;;;;;5133514;27;20035;-48
2022/09/23 01:35:53;;;;;;;1999.90;999.90;;;;;;;;;;5047790;27;20051;-49
2022/09/23 01:38:41;;;;;;;1999.90;999.90;;;;;;;;;;5133648;27;20039;-47
2022/09/23 01:41:15;;;;;;;1999.90;999.90;;;;;;;;;;5133678;27;20126;-45
2022/09/23 01:44:12;;;;;;;1999.90;999.90;;;;;;;;;;5133402;27;20513;-48
2022/09/23 01:46:49;;;;;;;1999.90;999.90;;;;;;;;;;5133482;27;20093;-47
2022/09/23 01:49:27;;;;;;;1999.90;999.90;;;;;;;;;;5133447;27;20045;-46
2022/09/23 01:52:18;;;;;;;1999.90;999.90;;;;;;;;;;5133114;27;20154;-47
2022/09/23 01:54:55;;;;;;;1999.90;999.90;;;;;;;;;;5122740;27;20058;-49
2022/09/23 01:57:30;;;;;;;1999.90;999.90;;;;;;;;;;5132527;27;20114;-46
2022/09/23 02:00:12;;;;;;;1999.90;999.90;;;;;;;;;;5133196;27;20194;-47
2022/09/23 02:02:55;;;;;;;1999.90;999.90;;;;;;;;;;5133200;27;20031;-46
2022/09/23 02:05:28;;;;;;;1999.90;999.90;;;;;;;;;;5133201;27;20041;-50
2022/09/23 02:08:03;;;;;;;1999.90;999.90;;;;;;;;;;5133173;27;20121;-46
2022/09/23 02:10:40;;;;;;;1999.90;999.90;;;;;;;;;;5132981;27;20402;-43
2022/09/23 02:13:16;;;;;;;1999.90;999.90;;;;;;;;;;5132815;27;20091;-44
2022/09/23 02:15:49;;;;;;;1999.90;999.90;;;;;;;;;;5132950;27;20031;-46
2022/09/23 02:18:23;;;;;;;1999.90;999.90;;;;;;;;;;5132766;27;20027;-46
2022/09/23 02:20:56;;;;;;;1999.90;999.90;;;;;;;;;;5132903;28;20045;-46
2022/09/23 02:23:34;;;;;;;1999.90;999.90;;;;;;;;;;5133029;28;20047;-45
2022/09/23 02:26:13;;;;;;;1999.90;999.90;;;;;;;;;;5132811;28;20046;-39
2022/09/23 02:29:03;;;;;;;1999.90;999.90;;;;;;;;;;5132636;28;20061;-47
2022/09/23 02:31:37;;;;;;;1999.90;999.90;;;;;;;;;;5150834;27;20501;-48
2022/09/23 02:34:25;;;;;;;1999.90;999.90;;;;;;;;;;5153538;27;20039;-47
2022/09/23 02:37:09;;;;;;;1999.90;999.90;;;;;;;;;;5153384;27;20041;-47
2022/09/23 02:40:00;;;;;;;1999.90;999.90;;;;;;;;;;5153513;27;20540;-46
2022/09/23 02:42:38;;;;;;;1999.90;999.90;;;;;;;;;;5153308;27;20035;-41
2022/09/23 02:45:06;;;;;;;1999.90;999.90;;;;;;;;;;5153628;27;20073;-40
2022/09/23 02:47:38;;;;;;;1999.90;999.90;;;;;;;;;;5153402;27;20113;-40
2022/09/23 02:50:06;;;;;;;1999.90;999.90;;;;;;;;;;5153432;27;20066;-40
2022/09/23 02:52:35;;;;;;;1999.90;999.90;;;;;;;;;;5153202;27;20027;-41
2022/09/23 02:55:05;;;;;;;1999.90;999.90;;;;;;;;;;5153228;27;20055;-40
2022/09/23 02:57:32;;;;;;;1999.90;999.90;;;;;;;;;;5153353;27;20042;-44
2022/09/23 03:00:01;;;;;;;1999.90;999.90;;;;;;;;;;5153250;27;20038;-48
2022/09/23 03:02:58;;;;;;;1999.90;999.90;;;;;;;;;;5152992;27;20090;-40
2022/09/23 03:05:30;;;;;;;1999.90;999.90;;;;;;;;;;5153154;27;20118;-44
2022/09/23 03:08:20;;;;;;;1999.90;999.90;;;;;;;;;;5156057;27;20034;-41
2022/09/23 03:11:16;;;;;;;1999.90;999.90;;;;;;;;;;5144162;27;20459;-40
2022/09/23 03:14:16;;;;;;;1999.90;999.90;;;;;;;;;;5154388;27;20058;-40
2022/09/23 03:16:57;;;;;;;1999.90;999.90;;;;;;;;;;5156759;27;20070;-42
2022/09/23 03:19:47;;;;;;;1999.90;999.90;;;;;;;;;;5156979;27;20117;-40
2022/09/23 03:22:27;;;;;;;1999.90;999.90;;;;;;;;;;5138617;27;20043;-39
2022/09/23 03:25:00;;;;;;;1999.90;999.90;;;;;;;;;;5156813;27;20061;-41
2022/09/23 03:27:30;;;;;;;1999.90;999.90;;;;;;;;;;5135957;27;20074;-40
2022/09/23 03:29:59;;;;;;;1999.90;999.90;;;;;;;;;;5142258;27;20074;-45
2022/09/23 03:32:28;;;;;;;1999.90;999.90;;;;;;;;;;5156747;27;20027;-40
2022/09/23 03:34:59;;;;;;;1999.90;999.90;;;;;;;;;;5156674;27;20039;-42
2022/09/23 03:37:37;;;;;;;1999.90;999.90;;;;;;;;;;5156292;27;20490;-40
2022/09/23 03:40:26;;;;;;;1999.90;999.90;;;;;;;;;;5156764;27;20066;-44
2022/09/23 04:08:58;;;;;;;1999.90;999.90;;;;;;;;;;5192956;27;20396;-41
2022/09/23 04:11:25;;;;;;;1999.90;999.90;;;;;;;;;;5171946;27;20079;-43
2022/09/23 04:13:54;;;;;;;1999.90;999.90;;;;;;;;;;5171599;27;20113;-41
2022/09/23 04:16:22;;;;;;;1999.90;999.90;;;;;;;;;;5171777;27;20027;-44
2022/09/23 04:18:50;;;;;;;1999.90;999.90;;;;;;;;;;5171424;27;20046;-40
2022/09/23 04:21:18;;;;;;;1999.90;999.90;;;;;;;;;;5171630;27;20099;-44
2022/09/23 04:23:45;;;;;;;1999.90;999.90;;;;;;;;;;5171571;27;20042;-45
2022/09/23 04:26:13;;;;;;;1999.90;999.90;;;;;;;;;;5171493;27;20043;-48
2022/09/23 04:28:40;;;;;;;1999.90;999.90;;;;;;;;;;5171509;27;20045;-45
2022/09/23 04:31:08;;;;;;;1999.90;999.90;;;;;;;;;;5186069;27;20038;-43
2022/09/23 04:33:36;;;;;;;1999.90;999.90;;;;;;;;;;5192282;27;20038;-42
2022/09/23 04:36:04;;;;;;;1999.90;999.90;;;;;;;;;;5153592;27;20123;-51
2022/09/23 04:38:31;;;;;;;1999.90;999.90;;;;;;;;;;5128484;28;20046;-43
2022/09/23 04:41:41;;;;;;;;;;;;;;;;;;5194514;27;1416;-42
2022/09/23 04:44:09;;;;;;;;;;;;;;;;;;5194454;27;892;-43
2022/09/23 04:46:37;;;;;;;;;;;;;;;;;;5194368;27;1207;-43
2022/09/23 04:49:06;;;;;;;;;;;;;;;;;;5194394;27;1106;-46
2022/09/23 04:51:33;;;;;;;;;;;;;;;;;;5194172;27;1240;-45
2022/09/23 04:54:00;;;;;;;;;;;;;;;;;;5194231;27;1177;-41
2022/09/23 04:56:30;;;;;;;;;;;;;;;;;;5193822;27;1318;-42
2022/09/23 04:59:00;;;;;;;;;;;;;;;;;;5193871;27;1223;-41
2022/09/23 05:01:33;;;;;;;;;;;;;;;;;;5193716;27;1968;-49
2022/09/23 05:04:04;;;;;;;;;;;;;;;;;;5193722;27;1059;-41
2022/09/23 05:06:33;;;;;;;;;;;;;;;;;;5193494;27;1031;-45
2022/09/23 05:09:00;;;;;;;;;;;;;;;;;;5193007;27;1142;-41
2022/09/23 05:11:29;;;;;;;;;;;;;;;;;;5193902;27;1142;-44
2022/09/23 05:13:56;;;;;;;;;;;;;;;;;;5193715;27;1321;-41
2022/09/23 05:16:26;;;;;;;;;;;;;;;;;;5193764;27;969;-48
2022/09/23 05:18:53;;;;;;;;;;;;;;;;;;5193283;27;1081;-41
2022/09/23 05:21:22;;;;;;;;;;;;;;;;;;5193570;27;1909;-40
2022/09/23 05:23:53;;;;;;;;;;;;;;;;;;5193183;27;922;-40
2022/09/23 05:26:23;;;;;;;;;;;;;;;;;;5193536;27;1227;-42
2022/09/23 05:28:50;;;;;;;;;;;;;;;;;;5191826;27;1189;-48
2022/09/23 05:31:18;;;;;;;;;;;;;;;;;;5191070;27;1118;-41
2022/09/23 05:33:47;;;;;;;;;;;;;;;;;;5190631;27;1305;-42
2022/09/23 05:36:16;;;;;;;;;;;;;;;;;;5191078;27;1043;-39
2022/09/23 05:38:44;;;;;;;;;;;;;;;;;;5191077;27;939;-41
2022/09/23 05:41:12;;;;;;;;;;;;;;;;;;5191251;27;1910;-44
2022/09/23 05:43:40;;;;;;;;;;;;;;;;;;5191632;27;890;-46
2022/09/23 05:46:09;;;;;;;;;;;;;;;;;;5192043;27;966;-42
2022/09/23 05:48:37;;;;;;;;;;;;;;;;;;5192197;27;1212;-46
2022/09/23 05:51:07;;;;;;;;;;;;;;;;;;5190782;27;1336;-48
2022/09/23 05:53:35;;;;;;;;;;;;;;;;;;5178991;27;1580;-47
2022/09/23 05:56:03;;;;;;;;;;;;;;;;;;5178935;27;1259;-46
2022/09/23 05:58:35;;;;;;;;;;;;;;;;;;5179096;27;1026;-45
2022/09/23 06:01:12;;;;;;;;;;;;;;;;;;5178711;27;1913;-43
2022/09/23 06:03:40;;;;;;;;;;;;;;;;;;5178888;27;1337;-46
2022/09/23 06:06:10;;;;;;;;;;;;;;;;;;5178831;27;1180;-47
2022/09/23 06:08:38;;;;;;;;;;;;;;;;;;5178757;27;1127;-40
2022/09/23 06:11:06;;;;;;;;;;;;;;;;;;5178633;27;1254;-39
2022/09/23 06:13:36;;;;;;;;;;;;;;;;;;5178476;27;1029;-39
2022/09/23 06:16:04;;;;;;;;;;;;;;;;;;5178303;27;984;-41
2022/09/23 06:18:31;;;;;;;;;;;;;;;;;;5178404;27;854;-39
2022/09/23 06:21:01;;;;;;;;;;;;;;;;;;5178154;27;1909;-39
2022/09/23 06:23:29;;;;;;;;;;;;;;;;;;5178584;27;1294;-41
2022/09/23 06:26:00;;;;;;;;;;;;;;;;;;5178330;27;929;-43
2022/09/23 06:28:29;;;;;;;;;;;;;;;;;;5178048;27;964;-44
2022/09/23 06:30:56;;;;;;;;;;;;;;;;;;5177993;27;1188;-46
2022/09/23 06:33:24;;;;;;;;;;;;;;;;;;5177787;27;1183;-43
2022/09/23 06:36:02;;;;;;;;;;;;;;;;;;5178338;27;1290;-42
2022/09/23 06:38:30;;;;;;;;;;;;;;;;;;5177881;27;891;-42
2022/09/23 06:40:57;;;;;;;;;;;;;;;;;;5177681;27;1905;-46
2022/09/23 06:43:25;;;;;;;;;;;;;;;;;;5177764;27;855;-42
2022/09/23 06:45:56;;;;;;;;;;;;;;;;;;5177880;27;1039;-41
2022/09/23 06:48:23;;;;;;;;;;;;;;;;;;5177964;27;1144;-46
2022/09/23 06:50:52;;;;;;;;;;;;;;;;;;5177706;27;962;-45
2022/09/23 06:53:23;;;;;;;;;;;;;;;;;;5177573;27;1166;-39
2022/09/23 06:56:01;;;;;;;;;;;;;;;;;;5177790;27;1057;-45
2022/09/23 06:58:30;;;;;;;;;;;;;;;;;;5177598;27;1149;-40
2022/09/23 07:01:01;;;;;;;;;;;;;;;;;;5177465;27;1968;-44
2022/09/23 07:03:28;;;;;;;;;;;;;;;;;;5176526;27;1173;-45
2022/09/23 07:05:55;;;;;;;;;;;;;;;;;;5177499;27;1107;-46
2022/09/23 07:08:23;;;;;;;;;;;;;;;;;;5177649;27;921;-40
2022/09/23 07:10:54;;;;;;;;;;;;;;;;;;5177275;27;1342;-45
2022/09/23 07:13:22;;;;;;;;;;;;;;;;;;5177490;27;1349;-44
2022/09/23 07:15:50;;;;;;;;;;;;;;;;;;5177044;27;998;-45
2022/09/23 07:18:18;;;;;;;;;;;;;;;;;;5158721;27;1085;-41
2022/09/23 07:20:47;;;;;;;;;;;;;;;;;;5176735;27;1978;-43
2022/09/23 07:23:14;;;;;;;;;;;;;;;;;;5177207;27;1006;-43
2022/09/23 07:25:41;;;;;;;;;;;;;;;;;;5176997;27;942;-40
2022/09/23 07:28:09;;;;;;;;;;;;;;;;;;5176956;27;1084;-45
2022/09/23 07:30:37;;;;;;;;;;;;;;;;;;5177174;27;1209;-41
2022/09/23 07:33:05;;;;;;;;;;;;;;;;;;5176806;27;1004;-43
2022/09/23 07:35:50;;;;;;;;;;;;;;;;;;5176890;27;942;-44
2022/09/23 07:38:17;;;;;;;;;;;;;;;;;;5176838;27;1287;-42
2022/09/23 07:40:45;;;;;;;;;;;;;;;;;;5176506;27;1901;-40
2022/09/23 07:43:12;;;;;;;;;;;;;;;;;;5176513;27;1157;-40
2022/09/23 07:45:42;;;;;;;;;;;;;;;;;;5176894;27;1041;-40
2022/09/23 07:48:09;;;;;;;;;;;;;;;;;;5176698;27;1182;-44
2022/09/23 07:50:37;;;;;;;;;;;;;;;;;;5176810;27;1077;-41
2022/09/23 07:53:06;;;;;;;;;;;;;;;;;;5176485;27;997;-40
2022/09/23 07:55:33;;;;;;;;;;;;;;;;;;5176260;27;886;-40
2022/09/23 07:58:00;;;;;;;;;;;;;;;;;;5176464;27;1261;-41
2022/09/23 08:00:28;;;;;;;;;;;;;;;;;;5176204;27;1901;-43
2022/09/23 08:02:55;;;;;;;;;;;;;;;;;;5176293;27;1066;-44
2022/09/23 08:05:24;;;;;;;;;;;;;;;;;;5176173;27;922;-48
2022/09/23 08:07:51;;;;;;;;;;;;;;;;;;5176340;27;1205;-41
2022/09/23 08:10:19;;;;;;;;;;;;;;;;;;5176062;27;1059;-41
2022/09/23 08:12:47;;;;;;;;;;;;;;;;;;5175972;27;1057;-46
2022/09/23 08:15:15;;;;;;;;;;;;;;;;;;5176114;27;1214;-44
2022/09/23 08:17:43;;;;;;;;;;;;;;;;;;5176113;27;1064;-44
2022/09/23 08:20:43;;;;;;;;;;;;;;;;;;5176334;27;1970;-41
2022/09/23 08:23:00;;;;;;;;;;;;;;;;;;5176122;27;1372;-43
2022/09/23 08:25:27;;;;;;;;;;;;;;;;;;5176142;27;946;-44
2022/09/23 08:27:58;;;;;;;;;;;;;;;;;;5176022;27;1137;-41
2022/09/23 08:30:25;;;;;;;;;;;;;;;;;;5176245;27;1134;-41
2022/09/23 08:32:52;;;;;;;;;;;;;;;;;;5175900;27;886;-40
2022/09/23 08:35:19;;;;;;;;;;;;;;;;;;5176114;27;1385;-41
2022/09/23 08:37:47;;;;;;;;;;;;;;;;;;5175746;27;1053;-44
2022/09/23 08:40:15;;;;;;;;;;;;;;;;;;5175610;27;1164;-40
2022/09/23 08:42:44;;;;;;;;;;;;;;;;;;5175885;27;1367;-41
2022/09/23 08:45:17;;;;;;;;;;;;;;;;;;5175866;27;1069;-40
2022/09/23 08:47:48;;;;;;;;;;;;;;;;;;5175733;27;1147;-41
2022/09/23 08:50:19;;;;;;;;;;;;;;;;;;5175866;27;1262;-40
2022/09/23 08:52:50;;;;;;;;;;;;;;;;;;5175384;27;915;-41
2022/09/23 08:55:19;;;;;;;;;;;;;;;;;;5175658;27;1339;-42
2022/09/23 08:57:55;;;;;;;;;;;;;;;;;;5175599;27;1026;-42
2022/09/23 09:00:45;;;;;;;;;;;;;;;;;;5175473;27;1901;-40
2022/09/23 09:03:32;;;;;;;;;;;;;;;;;;5175660;27;989;-40
2022/09/23 09:06:00;;;;;;;;;;;;;;;;;;5175630;27;1132;-48
2022/09/23 09:08:31;;;;;;;;;;;;;;;;;;5175433;27;965;-41
2022/09/23 09:10:58;;;;;;;;;;;;;;;;;;5175488;27;1212;-41
2022/09/23 09:13:42;;;;;;;;;;;;;;;;;;5175502;27;863;-46
2022/09/23 09:16:17;;;;;;;;;;;;;;;;;;5175815;27;943;-44
2022/09/23 09:19:02;;;;;;;;;;;;;;;;;;5175443;27;1067;-44
2022/09/23 09:21:37;;;;;;;;;;;;;;;;;;5175032;27;1897;-45
2022/09/23 09:24:11;;;;;;;;;;;;;;;;;;5175581;27;1020;-45
2022/09/23 09:26:38;;;;;;;;;;;;;;;;;;5176361;27;1259;-50
2022/09/23 09:29:12;;;;;;;;;;;;;;;;;;5179462;27;892;-46
2022/09/23 09:32:06;;;;;;;;;;;;;;;;;;5158623;27;1092;-44
2022/09/23 09:34:36;;;;;;;;;;;;;;;;;;5122942;27;963;-45
2022/09/23 09:37:10;;;;;;;;;;;;;;;;;;5158208;27;1033;-46
2022/09/23 09:39:37;;;;;;;;;;;;;;;;;;5158327;27;1165;-40
2022/09/23 09:42:05;;;;;;;;;;;;;;;;;;5158165;27;1980;-48
2022/09/23 09:44:46;;;;;;;;;;;;;;;;;;5158048;27;882;-48
2022/09/23 09:47:27;;;;;;;;;;;;;;;;;;5157976;27;922;-51
2022/09/23 09:50:05;;;;;;;;;;;;;;;;;;5157904;27;959;-46
2022/09/23 09:52:33;;;;;;;;;;;;;;;;;;5157898;27;899;-44
2022/09/23 09:55:12;;;;;;;;;;;;;;;;;;5157973;27;1055;-46
2022/09/23 09:57:39;;;;;;;;;;;;;;;;;;5158057;27;951;-48
2022/09/23 10:00:22;;;;;;;;;;;;;;;;;;5158131;27;1301;-43
2022/09/23 10:03:08;;;;;;;;;;;;;;;;;;5157543;27;1959;-47
2022/09/23 10:05:41;;;;;;;;;;;;;;;;;;5157698;27;1090;-47
2022/09/23 10:08:26;;;;;;;;;;;;;;;;;;5157644;27;1358;-45
2022/09/23 10:11:16;;;;;;;;;;;;;;;;;;5157701;27;1265;-41
2022/09/23 10:14:01;;;;;;;;;;;;;;;;;;5157600;27;961;-46
2022/09/23 10:16:30;;;;;;;;;;;;;;;;;;5157589;27;1263;-43
2022/09/23 10:18:59;;;;;;;;;;;;;;;;;;5157398;27;1061;-45
2022/09/23 10:21:33;;;;;;;;;;;;;;;;;;5157449;27;1878;-43
2022/09/23 10:24:03;;;;;;;;;;;;;;;;;;5157377;27;972;-45
2022/09/23 10:26:51;;;;;;;;;;;;;;;;;;5157256;27;1192;-42
2022/09/23 10:29:23;;;;;;;;;;;;;;;;;;5140012;27;1161;-41
2022/09/23 10:32:12;;;;;;;;;;;;;;;;;;5157427;27;911;-44
2022/09/23 10:34:43;;;;;;;;;;;;;;;;;;5157426;27;1026;-40
2022/09/23 10:37:13;;;;;;;;;;;;;;;;;;5157482;27;1302;-41
2022/09/23 10:48:39;;;;;;;;;;;;;;;;;;5157215;27;1244;-40
2022/09/23 10:51:13;;;;;;;;;;;;;;;;;;5141297;27;1586;-41
2022/09/23 10:53:46;;;;;;;;;;;;;;;;;;5145697;27;929;-42
2022/09/23 10:56:13;;;;;;;;;;;;;;;;;;5177669;27;1039;-45
2022/09/23 10:58:47;;;;;;;;;;;;;;;;;;5177889;27;1447;-48
2022/09/23 11:01:25;;;;;;;;;;;;;;;;;;5177378;27;1965;-45
2022/09/23 11:04:03;;;;;;;;;;;;;;;;;;5177497;27;1171;-46
2022/09/23 11:06:50;;;;;;;;;;;;;;;;;;5177367;27;968;-46
2022/09/23 11:09:17;;;;;;;;;;;;;;;;;;5177090;27;966;-42
2022/09/23 11:12:05;;;;;;;;;;;;;;;;;;5177186;27;1254;-45
2022/09/23 11:14:40;;;;;;;;;;;;;;;;;;5177392;27;1211;-48
2022/09/23 11:17:16;;;;;;;;;;;;;;;;;;5177532;27;1013;-46
2022/09/23 11:19:47;;;;;;;;;;;;;;;;;;5177337;27;1128;-43
2022/09/23 11:22:36;;;;;;;;;;;;;;;;;;5176855;27;1964;-46
2022/09/23 11:25:12;;;;;;;;;;;;;;;;;;5176932;27;922;-46
2022/09/23 11:27:45;;;;;;;;;;;;;;;;;;5177250;27;1023;-46
2022/09/23 11:30:15;;;;;;;;;;;;;;;;;;5176876;27;1141;-43
2022/09/23 11:33:02;;;;;;;;;;;;;;;;;;5176844;27;1053;-42
2022/09/23 11:35:40;;;;;;;;;;;;;;;;;;5176853;27;1170;-44
2022/09/23 11:38:11;;;;;;;;;;;;;;;;;;5176919;27;1194;-43
2022/09/23 11:40:39;;;;;;;;;;;;;;;;;;5176734;27;1460;-44
2022/09/23 11:43:18;;;;;;;;;;;;;;;;;;5176772;27;1972;-41
2022/09/23 11:46:01;;;;;;;;;;;;;;;;;;5176503;27;1348;-46
2022/09/23 11:48:32;;;;;;;;;;;;;;;;;;5175980;27;1278;-42
2022/09/23 11:51:10;;;;;;;;;;;;;;;;;;5175907;27;981;-47
2022/09/23 11:53:40;;;;;;;;;;;;;;;;;;5176595;27;986;-44
2022/09/23 11:56:14;;;;;;;;;;;;;;;;;;5177028;27;1298;-44
2022/09/23 11:59:11;;;;;;;;;;;;;;;;;;5176378;27;1395;-42
2022/09/23 12:01:43;;;;;;;;;;;;;;;;;;5124124;27;1901;-42
2022/09/23 12:04:21;;;;;;;;;;;;;;;;;;5175037;27;1279;-40
2022/09/23 12:06:54;;;;;;;;;;;;;;;;;;5174806;27;878;-44
2022/09/23 12:09:26;;;;;;;;;;;;;;;;;;5175465;27;1037;-44
2022/09/23 12:12:28;;;;;;;;;;;;;;;;;;5176019;27;937;-47
2022/09/23 12:15:14;;;;;;;;;;;;;;;;;;5157648;27;1074;-45
2022/09/23 12:17:42;;;;;;;;;;;;;;;;;;5175776;27;1198;-41
2022/09/23 12:20:29;;;;;;;;;;;;;;;;;;5175795;27;997;-46
2022/09/23 12:23:07;;;;;;;;;;;;;;;;;;5175592;27;1949;-46
2022/09/23 12:25:45;;;;;;;;;;;;;;;;;;5175511;27;1137;-42
2022/09/23 12:28:15;;;;;;;;;;;;;;;;;;5175306;27;1137;-46
2022/09/23 12:30:43;;;;;;;;;;;;;;;;;;5175400;27;2011;-41
2022/09/23 12:33:23;;;;;;;;;;;;;;;;;;5157142;27;1409;-41
2022/09/23 12:36:11;;;;;;;;;;;;;;;;;;5175729;27;874;-45
2022/09/23 12:38:47;;;;;;;;;;;;;;;;;;5175431;27;1250;-40
2022/09/23 12:41:17;;;;;;;;;;;;;;;;;;5175502;27;1326;-46
2022/09/23 12:44:12;;;;;;;;;;;;;;;;;;5175549;27;1661;-43
2022/09/23 12:46:40;;;;;;;;;;;;;;;;;;5172935;27;1691;-42
2022/09/23 12:49:40;;;;;;;;;;;;;;;;;;5175157;27;1098;-37
2022/09/23 12:52:10;;;;;;;;;;;;;;;;;;5119748;27;1269;-41
2022/09/23 12:54:40;;;;;;;;;;;;;;;;;;5175555;27;1170;-47
2022/09/23 12:57:14;;;;;;;;;;;;;;;;;;5176045;27;1260;-46
2022/09/23 12:59:54;;;;;;;;;;;;;;;;;;5175821;27;1127;-42
2022/09/23 13:02:32;;;;;;;;;;;;;;;;;;5177207;27;1906;-42
2022/09/23 13:07:49;;;;;;;;;;;;;;;;;;5179907;27;1148;-44
2022/09/23 13:10:39;;;;;;;;;;;;;;;;;;5179588;27;1063;-42
2022/09/23 13:13:09;;;;;;;;;;;;;;;;;;5166603;27;1321;-42
2022/09/23 13:15:36;;;;;;;;;;;;;;;;;;5179416;27;1105;-40
2022/09/23 13:18:22;;;;;;;;;;;;;;;;;;5179465;27;1164;-41
2022/09/23 13:20:50;;;;;;;;;;;;;;;;;;5179274;27;1212;-40
2022/09/23 13:23:22;;;;;;;;;;;;;;;;;;5179248;27;1898;-45
2022/09/23 13:25:50;;;;;;;;;;;;;;;;;;5179236;27;943;-45
2022/09/23 13:28:28;;;;;;;;;;;;;;;;;;5179272;27;1216;-45
2022/09/23 13:30:57;;;;;;;;;;;;;;;;;;5178837;27;1198;-46
2022/09/23 13:33:30;;;;;;;;;;;;;;;;;;5178857;27;1256;-43
2022/09/23 13:36:01;;;;;;;;;;;;;;;;;;5160916;27;1306;-49
2022/09/23 13:38:30;;;;;;;;;;;;;;;;;;5178615;27;955;-45
2022/09/23 13:41:04;;;;;;;;;;;;;;;;;;5178915;27;1231;-46
2022/09/23 13:43:35;;;;;;;;;;;;;;;;;;5178760;27;1901;-47
2022/09/23 13:46:12;;;;;;;;;;;;;;;;;;5178642;27;1034;-47
2022/09/23 13:48:42;;;;;;;;;;;;;;;;;;5178944;27;2167;-48
2022/09/23 13:51:10;;;;;;;;;;;;;;;;;;5178563;27;1906;-44
2022/09/23 13:53:38;;;;;;;;;;;;;;;;;;5178187;27;1591;-41
2022/09/23 13:56:14;;;;;;;;;;;;;;;;;;5178361;27;2111;-44
2022/09/23 13:58:42;;;;;;;;;;;;;;;;;;5178393;27;2155;-42
2022/09/23 14:01:20;;;;;;;;;;;;;;;;;;5178515;27;1742;-44
2022/09/23 14:03:50;;;;;;;;;;;;;;;;;;5178552;27;1901;-43
2022/09/23 14:06:18;;;;;;;;;;;;;;;;;;5178575;27;1783;-40
2022/09/23 14:08:46;;;;;;;;;;;;;;;;;;5178506;27;2199;-43
2022/09/23 14:11:15;;;;;;;;;;;;;;;;;;5178296;27;1878;-47
2022/09/23 14:13:44;;;;;;;;;;;;;;;;;;5178181;27;1991;-43
2022/09/23 14:16:18;;;;;;;;;;;;;;;;;;5178399;27;2130;-42
2022/09/23 14:18:47;;;;;;;;;;;;;;;;;;5178562;27;2061;-46
2022/09/23 14:21:29;;;;;;;;;;;;;;;;;;5177696;27;1779;-43
2022/09/23 14:24:04;;;;;;;;;;;;;;;;;;5177634;27;2176;-42
2022/09/23 14:26:31;;;;;;;;;;;;;;;;;;5177914;27;2090;-43
2022/09/23 14:28:58;;;;;;;;;;;;;;;;;;5167280;27;1833;-44
2022/09/23 14:31:26;;;;;;;;;;;;;;;;;;5174514;27;1946;-47
2022/09/23 14:33:56;;;;;;;;;;;;;;;;;;5177749;27;2036;-44
2022/09/23 14:39:10;;;;;;;;;;;;;;;;;;5177663;27;2069;-42
2022/09/23 14:41:39;;;;;;;;;;;;;;;;;;5177646;27;1643;-47
2022/09/23 14:44:22;;;;;;;;;;;;;;;;;;5177520;27;1967;-38
2022/09/23 14:46:55;;;;;;;;;;;;;;;;;;5177423;27;2093;-46
2022/09/23 14:49:23;;;;;;;;;;;;;;;;;;5177375;27;1480;-57
2022/09/23 14:51:54;;;;;;;;;;;;;;;;;;5177381;27;1639;-41
2022/09/23 14:54:32;;;;;;;;;;;;;;;;;;5177359;27;1511;-40
2022/09/23 14:57:21;;;;;;;;;;;;;;;;;;5176951;27;1200;-40
2022/09/23 14:59:51;;;;;;;;;;;;;;;;;;5160295;27;1699;-39
2022/09/23 15:02:39;;;;;;;;;;;;;;;;;;5176966;27;1901;-40
2022/09/23 15:05:09;;;;;;;;;;;;;;;;;;5177368;27;1586;-39
2022/09/23 15:07:36;;;;;;;;;;;;;;;;;;5177007;27;2118;-46
2022/09/23 15:10:08;;;;;;;;;;;;;;;;;;5175812;27;2171;-48
2022/09/23 15:12:36;;;;;;;;;;;;;;;;;;5167941;27;1768;-46
2022/09/23 15:15:04;;;;;;;;;;;;;;;;;;5177156;27;1887;-45
2022/09/23 15:17:36;;;;;;;;;;;;;;;;;;5163543;27;1420;-44
2022/09/23 15:20:15;;;;;;;;;;;;;;;;;;5156299;27;2169;-47
2022/09/23 15:22:47;;;;;;;;;;;;;;;;;;5157917;27;1972;-42
2022/09/23 15:25:15;;;;;;;;;;;;;;;;;;5155206;27;2053;-44
2022/09/23 15:27:54;;;;;;;;;;;;;;;;;;5156021;27;1887;-47
2022/09/23 15:30:24;;;;;;;;;;;;;;;;;;5164511;27;2104;-46
2022/09/23 15:32:52;;;;;;;;;;;;;;;;;;5176894;27;1788;-43
2022/09/23 15:35:21;;;;;;;;;;;;;;;;;;5158651;27;1929;-43
2022/09/23 15:37:50;;;;;;;;;;;;;;;;;;5176871;27;1915;-42
2022/09/23 15:40:22;;;;;;;;;;;;;;;;;;5176676;27;1877;-43
2022/09/23 15:42:52;;;;;;;;;;;;;;;;;;5176698;27;1972;-43
2022/09/23 15:45:26;;;;;;;;;;;;;;;;;;5176854;27;1763;-47
2022/09/23 15:47:54;;;;;;;;;;;;;;;;;;5176343;27;2101;-43
2022/09/23 15:50:21;;;;;;;;;;;;;;;;;;5176214;27;1796;-41
2022/09/23 15:52:49;;;;;;;;;;;;;;;;;;5176219;27;1938;-43
2022/09/23 15:55:17;;;;;;;;;;;;;;;;;;5176549;27;1701;-39
2022/09/23 15:57:48;;;;;;;;;;;;;;;;;;5176022;27;1839;-41
2022/09/23 16:00:15;;;;;;;;;;;;;;;;;;5176169;27;2197;-43
2022/09/23 16:02:47;;;;;;;;;;;;;;;;;;5175812;27;1905;-39
2022/09/23 16:05:25;;;;;;;;;;;;;;;;;;5175983;27;2172;-45
2022/09/23 16:07:53;;;;;;;;;;;;;;;;;;5175974;27;1893;-41
2022/09/23 16:10:21;;;;;;;;;;;;;;;;;;5176193;27;1927;-41
2022/09/23 16:12:51;;;;;;;;;;;;;;;;;;5175888;27;2074;-42
2022/09/23 16:15:19;;;;;;;;;;;;;;;;;;5176031;27;1932;-44
2022/09/23 16:17:46;;;;;;;;;;;;;;;;;;5175704;27;1806;-46
2022/09/23 16:20:16;;;;;;;;;;;;;;;;;;5175801;27;1406;-47
2022/09/23 16:22:48;;;;;;;;;;;;;;;;;;5175696;27;2005;-47
2022/09/23 16:25:15;;;;;;;;;;;;;;;;;;5175791;27;1773;-45
2022/09/23 16:27:43;;;;;;;;;;;;;;;;;;5175669;27;1951;-45
2022/09/23 16:30:11;;;;;;;;;;;;;;;;;;5175504;27;1934;-46
2022/09/23 16:32:44;;;;;;;;;;;;;;;;;;5175750;27;1946;-46
2022/09/23 16:35:12;;;;;;;;;;;;;;;;;;5175791;27;1808;-42
2022/09/23 16:37:45;;;;;;;;;;;;;;;;;;5157664;27;1681;-45
2022/09/23 16:40:18;;;;;;;;;;;;;;;;;;5175514;27;2027;-40
2022/09/23 16:42:46;;;;;;;;;;;;;;;;;;5174894;27;1990;-46
2022/09/23 16:45:16;;;;;;;;;;;;;;;;;;5156719;27;1942;-44
2022/09/23 16:47:46;;;;;;;;;;;;;;;;;;5175619;27;2121;-41
2022/09/23 16:50:14;;;;;;;;;;;;;;;;;;5175066;27;1814;-40
2022/09/23 16:52:42;;;;;;;;;;;;;;;;;;5175407;27;2075;-43
2022/09/23 16:55:10;;;;;;;;;;;;;;;;;;5175771;27;1763;-45
2022/09/23 16:57:39;;;;;;;;;;;;;;;;;;5175594;27;1699;-45
2022/09/23 17:05:43;;;;;;;;;;;;;;;;;;5175489;27;1655;-45
2022/09/23 17:08:15;;;;;;;;;;;;;;;;;;5175755;27;1810;-48
2022/09/23 17:10:43;;;;;;;;;;;;;;;;;;5175622;27;1901;-45
2022/09/23 17:13:16;;;;;;;;;;;;;;;;;;5175673;27;2068;-46
2022/09/23 17:15:44;;;;;;;;;;;;;;;;;;5175133;27;1641;-46
2022/09/23 17:18:13;;;;;;;;;;;;;;;;;;5174623;27;1949;-48
2022/09/23 17:21:05;;;;;;;;;;;;;;;;;;5174996;27;2126;-45
2022/09/23 17:23:34;;;;;;;;;;;;;;;;;;5174107;27;2260;-44
2022/09/23 17:26:01;;;;;;;;;;;;;;;;;;5174946;27;2163;-44
2022/09/23 17:28:30;;;;;;;;;;;;;;;;;;5175226;27;1807;-43
2022/09/23 17:30:58;;;;;;;;;;;;;;;;;;5175377;27;1341;-45
2022/09/23 17:33:27;;;;;;;;;;;;;;;;;;5175438;27;2240;-47